sensor_id;sensor_type;location;lat;lon;timestamp;temperature;humidity
27858;DHT22;16852;51.446;6.528;2023-08-24T00:00:41;22.50;99.90
27858;DHT22;16852;51.446;6.528;2023-08-24T00:02:42;22.50;99.90
27858;DHT22;16852;51.446;6.528;2023-08-24T00:04:42;22.50;99.90
27858;DHT22;16852;51.446;6.528;2023-08-24T00:06:43;22.50;99.90
27858;DHT22;16852;51.446;6.528;2023-08-24T00:08:43;22.50;99.90
27858;DHT22;16852;51.446;6.528;2023-08-24T00:10:45;22.50;99.90
27858;DHT22;16852;51.446;6.528;2023-08-24T00:12:49;22.50;99.90
27858;DHT22;16852;51.446;6.528;2023-08-24T00:14:49;22.50;99.90
27858;DHT22;16852;51.446;6.528;2023-08-24T00:16:50;22.50;99.90
27858;DHT22;16852;51.446;6.528;2023-08-24T00:18:51;22.50;99.90
27858;DHT22;16852;51.446;6.528;2023-08-24T00:20:51;22.50;99.90
27858;DHT22;16852;51.446;6.528;2023-08-24T00:22:52;22.40;99.90
27858;DHT22;16852;51.446;6.528;2023-08-24T00:24:53;22.40;99.90
27858;DHT22;16852;51.446;6.528;2023-08-24T00:26:54;22.40;99.90
27858;DHT22;16852;51.446;6.528;2023-08-24T00:28:54;22.40;99.90
27858;DHT22;16852;51.446;6.528;2023-08-24T00:30:55;22.40;99.90
27858;DHT22;16852;51.446;6.528;2023-08-24T00:32:56;22.40;99.90
27858;DHT22;16852;51.446;6.528;2023-08-24T00:34:56;22.40;99.90
27858;DHT22;16852;51.446;6.528;2023-08-24T00:36:57;22.30;99.90
27858;DHT22;16852;51.446;6.528;2023-08-24T00:38:57;22.30;99.90
27858;DHT22;16852;51.446;6.528;2023-08-24T00:40:58;22.30;99.90
27858;DHT22;16852;51.446;6.528;2023-08-24T00:42:59;22.30;99.90
27858;DHT22;16852;51.446;6.528;2023-08-24T00:45:00;22.30;99.90
27858;DHT22;16852;51.446;6.528;2023-08-24T00:47:00;22.20;99.90
27858;DHT22;16852;51.446;6.528;2023-08-24T00:49:02;22.20;99.90
27858;DHT22;16852;51.446;6.528;2023-08-24T00:51:04;22.30;99.90
27858;DHT22;16852;51.446;6.528;2023-08-24T00:53:05;22.20;99.90
27858;DHT22;16852;51.446;6.528;2023-08-24T00:55:06;22.20;99.90
27858;DHT22;16852;51.446;6.528;2023-08-24T00:57:07;22.20;99.90
27858;DHT22;16852;51.446;6.528;2023-08-24T00:59:08;22.10;99.90
27858;DHT22;16852;51.446;6.528;2023-08-24T01:01:08;22.10;99.90
27858;DHT22;16852;51.446;6.528;2023-08-24T01:03:09;22.10;99.90
27858;DHT22;16852;51.446;6.528;2023-08-24T01:05:10;22.10;99.90
27858;DHT22;16852;51.446;6.528;2023-08-24T01:07:11;22.10;99.90
27858;DHT22;16852;51.446;6.528;2023-08-24T01:09:11;22.10;99.90
27858;DHT22;16852;51.446;6.528;2023-08-24T01:11:38;22.10;99.90
27858;DHT22;16852;51.446;6.528;2023-08-24T01:13:57;22.10;99.90
27858;DHT22;16852;51.446;6.528;2023-08-24T01:16:10;22.10;99.90
27858;DHT22;16852;51.446;6.528;2023-08-24T01:18:16;22.10;99.90
27858;DHT22;16852;51.446;6.528;2023-08-24T01:20:17;22.10;99.90
27858;DHT22;16852;51.446;6.528;2023-08-24T01:24:38;22.10;99.90
27858;DHT22;16852;51.446;6.528;2023-08-24T01:26:40;22.10;99.90
27858;DHT22;16852;51.446;6.528;2023-08-24T01:28:43;22.10;99.90
27858;DHT22;16852;51.446;6.528;2023-08-24T01:30:45;22.10;99.90
27858;DHT22;16852;51.446;6.528;2023-08-24T01:32:45;22.20;99.90
27858;DHT22;16852;51.446;6.528;2023-08-24T01:34:46;22.20;99.90
27858;DHT22;16852;51.446;6.528;2023-08-24T01:36:46;22.10;99.90
27858;DHT22;16852;51.446;6.528;2023-08-24T01:38:57;22.10;99.90
27858;DHT22;16852;51.446;6.528;2023-08-24T01:43:10;22.00;99.90
27858;DHT22;16852;51.446;6.528;2023-08-24T01:45:12;22.00;99.90
27858;DHT22;16852;51.446;6.528;2023-08-24T01:47:14;22.00;99.90
27858;DHT22;16852;51.446;6.528;2023-08-24T01:49:17;22.00;99.90
27858;DHT22;16852;51.446;6.528;2023-08-24T01:51:19;22.00;99.90
27858;DHT22;16852;51.446;6.528;2023-08-24T01:53:20;22.00;99.90
27858;DHT22;16852;51.446;6.528;2023-08-24T01:55:21;22.00;99.90
27858;DHT22;16852;51.446;6.528;2023-08-24T01:57:21;22.00;99.90
27858;DHT22;16852;51.446;6.528;2023-08-24T01:59:22;22.00;99.90
27858;DHT22;16852;51.446;6.528;2023-08-24T02:01:22;22.00;99.90
27858;DHT22;16852;51.446;6.528;2023-08-24T02:03:23;21.90;99.90
27858;DHT22;16852;51.446;6.528;2023-08-24T02:05:24;21.90;99.90
27858;DHT22;16852;51.446;6.528;2023-08-24T02:07:27;21.90;99.90
27858;DHT22;16852;51.446;6.528;2023-08-24T02:09:28;21.90;99.90
27858;DHT22;16852;51.446;6.528;2023-08-24T02:11:29;21.90;99.90
27858;DHT22;16852;51.446;6.528;2023-08-24T02:13:29;21.80;99.90
27858;DHT22;16852;51.446;6.528;2023-08-24T02:15:30;21.80;99.90
27858;DHT22;16852;51.446;6.528;2023-08-24T02:17:31;21.60;99.90
27858;DHT22;16852;51.446;6.528;2023-08-24T02:19:31;21.60;99.90
27858;DHT22;16852;51.446;6.528;2023-08-24T02:21:34;21.60;99.90
27858;DHT22;16852;51.446;6.528;2023-08-24T02:23:35;21.60;99.90
27858;DHT22;16852;51.446;6.528;2023-08-24T02:25:42;21.60;99.90
27858;DHT22;16852;51.446;6.528;2023-08-24T02:27:43;21.60;99.90
27858;DHT22;16852;51.446;6.528;2023-08-24T02:29:43;21.60;99.90
27858;DHT22;16852;51.446;6.528;2023-08-24T02:31:44;21.50;99.90
27858;DHT22;16852;51.446;6.528;2023-08-24T02:33:45;21.50;99.90
27858;DHT22;16852;51.446;6.528;2023-08-24T02:35:48;21.50;99.90
27858;DHT22;16852;51.446;6.528;2023-08-24T02:37:49;21.50;99.90
27858;DHT22;16852;51.446;6.528;2023-08-24T02:39:49;21.60;99.90
27858;DHT22;16852;51.446;6.528;2023-08-24T02:41:50;21.60;99.90
27858;DHT22;16852;51.446;6.528;2023-08-24T02:43:51;21.60;99.90
27858;DHT22;16852;51.446;6.528;2023-08-24T02:45:53;21.50;99.90
27858;DHT22;16852;51.446;6.528;2023-08-24T02:47:54;21.60;99.90
27858;DHT22;16852;51.446;6.528;2023-08-24T02:49:54;21.50;99.90
27858;DHT22;16852;51.446;6.528;2023-08-24T02:51:55;21.60;99.90
27858;DHT22;16852;51.446;6.528;2023-08-24T02:53:55;21.60;99.90
27858;DHT22;16852;51.446;6.528;2023-08-24T02:55:56;21.50;99.90
27858;DHT22;16852;51.446;6.528;2023-08-24T02:57:57;21.50;99.90
27858;DHT22;16852;51.446;6.528;2023-08-24T02:59:57;21.50;99.90
27858;DHT22;16852;51.446;6.528;2023-08-24T03:01:58;21.50;99.90
27858;DHT22;16852;51.446;6.528;2023-08-24T03:03:59;21.50;99.90
27858;DHT22;16852;51.446;6.528;2023-08-24T03:06:01;21.40;99.90
27858;DHT22;16852;51.446;6.528;2023-08-24T03:08:03;21.40;99.90
27858;DHT22;16852;51.446;6.528;2023-08-24T03:10:05;21.40;99.90
27858;DHT22;16852;51.446;6.528;2023-08-24T03:12:05;21.40;99.90
27858;DHT22;16852;51.446;6.528;2023-08-24T03:14:06;21.40;99.90
27858;DHT22;16852;51.446;6.528;2023-08-24T03:16:08;21.40;99.90
27858;DHT22;16852;51.446;6.528;2023-08-24T03:18:13;21.40;99.90
27858;DHT22;16852;51.446;6.528;2023-08-24T03:20:13;21.40;99.90
27858;DHT22;16852;51.446;6.528;2023-08-24T03:22:14;21.40;99.90
27858;DHT22;16852;51.446;6.528;2023-08-24T03:24:15;21.40;99.90
27858;DHT22;16852;51.446;6.528;2023-08-24T03:26:15;21.40;99.90
27858;DHT22;16852;51.446;6.528;2023-08-24T03:28:17;21.40;99.90
27858;DHT22;16852;51.446;6.528;2023-08-24T03:30:17;21.40;99.90
27858;DHT22;16852;51.446;6.528;2023-08-24T03:32:18;21.40;99.90
27858;DHT22;16852;51.446;6.528;2023-08-24T03:34:19;21.40;99.90
27858;DHT22;16852;51.446;6.528;2023-08-24T03:36:21;21.40;99.90
27858;DHT22;16852;51.446;6.528;2023-08-24T03:38:22;21.40;99.90
27858;DHT22;16852;51.446;6.528;2023-08-24T03:40:22;21.50;99.90
27858;DHT22;16852;51.446;6.528;2023-08-24T03:42:23;21.50;99.90
27858;DHT22;16852;51.446;6.528;2023-08-24T03:44:24;21.50;99.90
27858;DHT22;16852;51.446;6.528;2023-08-24T03:46:25;21.50;99.90
27858;DHT22;16852;51.446;6.528;2023-08-24T03:48:26;21.50;99.90
27858;DHT22;16852;51.446;6.528;2023-08-24T03:50:26;21.50;99.90
27858;DHT22;16852;51.446;6.528;2023-08-24T03:52:27;21.50;99.90
27858;DHT22;16852;51.446;6.528;2023-08-24T03:54:28;21.50;99.90
27858;DHT22;16852;51.446;6.528;2023-08-24T03:56:28;21.50;99.90
27858;DHT22;16852;51.446;6.528;2023-08-24T03:58:29;21.50;99.90
27858;DHT22;16852;51.446;6.528;2023-08-24T04:00:30;21.50;99.90
27858;DHT22;16852;51.446;6.528;2023-08-24T04:02:31;21.60;99.90
27858;DHT22;16852;51.446;6.528;2023-08-24T04:04:32;21.60;99.90
27858;DHT22;16852;51.446;6.528;2023-08-24T04:06:32;21.50;99.90
27858;DHT22;16852;51.446;6.528;2023-08-24T04:08:33;21.50;99.90
27858;DHT22;16852;51.446;6.528;2023-08-24T04:10:33;21.50;99.90
27858;DHT22;16852;51.446;6.528;2023-08-24T04:12:34;21.40;99.90
27858;DHT22;16852;51.446;6.528;2023-08-24T04:14:35;21.40;99.90
27858;DHT22;16852;51.446;6.528;2023-08-24T04:16:36;21.40;99.90
27858;DHT22;16852;51.446;6.528;2023-08-24T04:18:36;21.40;99.90
27858;DHT22;16852;51.446;6.528;2023-08-24T04:20:37;21.40;99.90
27858;DHT22;16852;51.446;6.528;2023-08-24T04:22:38;21.40;99.90
27858;DHT22;16852;51.446;6.528;2023-08-24T04:24:38;21.40;99.90
27858;DHT22;16852;51.446;6.528;2023-08-24T04:26:39;21.30;99.90
27858;DHT22;16852;51.446;6.528;2023-08-24T04:28:40;21.20;99.90
27858;DHT22;16852;51.446;6.528;2023-08-24T04:30:40;21.10;99.90
27858;DHT22;16852;51.446;6.528;2023-08-24T04:32:41;21.00;99.90
27858;DHT22;16852;51.446;6.528;2023-08-24T04:34:41;21.00;99.90
27858;DHT22;16852;51.446;6.528;2023-08-24T04:36:42;20.80;99.90
27858;DHT22;16852;51.446;6.528;2023-08-24T04:38:43;20.80;99.90
27858;DHT22;16852;51.446;6.528;2023-08-24T04:40:52;20.80;99.90
27858;DHT22;16852;51.446;6.528;2023-08-24T04:42:53;20.80;99.90
27858;DHT22;16852;51.446;6.528;2023-08-24T04:44:53;20.80;99.90
27858;DHT22;16852;51.446;6.528;2023-08-24T04:46:54;20.80;99.90
27858;DHT22;16852;51.446;6.528;2023-08-24T04:48:55;20.80;99.90
27858;DHT22;16852;51.446;6.528;2023-08-24T04:50:55;20.70;99.90
27858;DHT22;16852;51.446;6.528;2023-08-24T04:52:56;20.70;99.90
27858;DHT22;16852;51.446;6.528;2023-08-24T04:54:57;20.70;99.90
27858;DHT22;16852;51.446;6.528;2023-08-24T04:56:57;20.60;99.90
27858;DHT22;16852;51.446;6.528;2023-08-24T04:58:58;20.70;99.90
27858;DHT22;16852;51.446;6.528;2023-08-24T05:01:00;20.70;99.90
27858;DHT22;16852;51.446;6.528;2023-08-24T05:03:04;20.70;99.90
27858;DHT22;16852;51.446;6.528;2023-08-24T05:05:06;20.70;99.90
27858;DHT22;16852;51.446;6.528;2023-08-24T05:07:08;20.70;99.90
27858;DHT22;16852;51.446;6.528;2023-08-24T05:09:08;20.60;99.90
27858;DHT22;16852;51.446;6.528;2023-08-24T05:11:18;20.60;99.90
27858;DHT22;16852;51.446;6.528;2023-08-24T05:13:18;20.60;99.90
27858;DHT22;16852;51.446;6.528;2023-08-24T05:15:19;20.60;99.90
27858;DHT22;16852;51.446;6.528;2023-08-24T05:17:20;20.60;99.90
27858;DHT22;16852;51.446;6.528;2023-08-24T05:19:22;20.50;99.90
27858;DHT22;16852;51.446;6.528;2023-08-24T05:21:22;20.50;99.90
27858;DHT22;16852;51.446;6.528;2023-08-24T05:23:23;20.50;99.90
27858;DHT22;16852;51.446;6.528;2023-08-24T05:25:23;20.60;99.90
27858;DHT22;16852;51.446;6.528;2023-08-24T05:27:24;20.60;99.90
27858;DHT22;16852;51.446;6.528;2023-08-24T05:29:25;20.60;99.90
27858;DHT22;16852;51.446;6.528;2023-08-24T05:31:25;20.60;99.90
27858;DHT22;16852;51.446;6.528;2023-08-24T05:33:27;20.60;99.90
27858;DHT22;16852;51.446;6.528;2023-08-24T05:35:31;20.60;99.90
27858;DHT22;16852;51.446;6.528;2023-08-24T05:37:32;20.70;99.90
27858;DHT22;16852;51.446;6.528;2023-08-24T05:39:32;20.70;99.90
27858;DHT22;16852;51.446;6.528;2023-08-24T05:41:33;20.70;99.90
27858;DHT22;16852;51.446;6.528;2023-08-24T05:43:34;20.80;99.90
27858;DHT22;16852;51.446;6.528;2023-08-24T05:45:35;20.80;99.90
27858;DHT22;16852;51.446;6.528;2023-08-24T05:47:36;20.80;99.90
27858;DHT22;16852;51.446;6.528;2023-08-24T05:49:36;20.90;99.90
27858;DHT22;16852;51.446;6.528;2023-08-24T05:51:37;20.90;99.90
27858;DHT22;16852;51.446;6.528;2023-08-24T05:53:38;20.90;99.90
27858;DHT22;16852;51.446;6.528;2023-08-24T05:55:41;21.00;99.90
27858;DHT22;16852;51.446;6.528;2023-08-24T05:57:41;21.00;99.90
27858;DHT22;16852;51.446;6.528;2023-08-24T05:59:42;21.10;99.90
27858;DHT22;16852;51.446;6.528;2023-08-24T06:01:43;21.10;99.90
27858;DHT22;16852;51.446;6.528;2023-08-24T06:03:43;21.20;99.90
27858;DHT22;16852;51.446;6.528;2023-08-24T06:05:44;21.20;99.90
27858;DHT22;16852;51.446;6.528;2023-08-24T06:07:45;21.30;99.90
27858;DHT22;16852;51.446;6.528;2023-08-24T06:09:46;21.30;99.90
27858;DHT22;16852;51.446;6.528;2023-08-24T06:11:46;21.40;99.90
27858;DHT22;16852;51.446;6.528;2023-08-24T06:13:47;21.50;99.90
27858;DHT22;16852;51.446;6.528;2023-08-24T06:15:48;21.50;99.90
27858;DHT22;16852;51.446;6.528;2023-08-24T06:17:48;21.50;99.90
27858;DHT22;16852;51.446;6.528;2023-08-24T06:19:50;21.50;99.90
27858;DHT22;16852;51.446;6.528;2023-08-24T06:21:50;21.60;99.90
27858;DHT22;16852;51.446;6.528;2023-08-24T06:23:51;21.60;99.90
27858;DHT22;16852;51.446;6.528;2023-08-24T06:25:52;21.60;99.90
27858;DHT22;16852;51.446;6.528;2023-08-24T06:27:52;21.60;99.90
27858;DHT22;16852;51.446;6.528;2023-08-24T06:29:53;21.60;99.90
27858;DHT22;16852;51.446;6.528;2023-08-24T06:31:53;21.60;99.90
27858;DHT22;16852;51.446;6.528;2023-08-24T06:33:54;21.60;99.90
27858;DHT22;16852;51.446;6.528;2023-08-24T06:35:54;21.50;99.90
27858;DHT22;16852;51.446;6.528;2023-08-24T06:37:55;21.40;99.90
27858;DHT22;16852;51.446;6.528;2023-08-24T06:39:56;21.50;99.90
27858;DHT22;16852;51.446;6.528;2023-08-24T06:41:56;21.60;99.90
27858;DHT22;16852;51.446;6.528;2023-08-24T06:43:57;21.70;99.90
27858;DHT22;16852;51.446;6.528;2023-08-24T06:45:59;21.80;99.90
27858;DHT22;16852;51.446;6.528;2023-08-24T06:48:00;22.00;99.90
27858;DHT22;16852;51.446;6.528;2023-08-24T06:50:00;22.20;99.90
27858;DHT22;16852;51.446;6.528;2023-08-24T06:52:01;22.50;99.90
27858;DHT22;16852;51.446;6.528;2023-08-24T06:54:02;22.80;99.90
27858;DHT22;16852;51.446;6.528;2023-08-24T06:56:03;23.10;99.90
27858;DHT22;16852;51.446;6.528;2023-08-24T06:58:04;23.40;99.90
27858;DHT22;16852;51.446;6.528;2023-08-24T07:00:06;23.70;99.90
27858;DHT22;16852;51.446;6.528;2023-08-24T07:02:08;24.00;99.90
27858;DHT22;16852;51.446;6.528;2023-08-24T07:04:08;24.30;99.90
27858;DHT22;16852;51.446;6.528;2023-08-24T07:06:09;24.70;99.90
27858;DHT22;16852;51.446;6.528;2023-08-24T07:08:13;25.00;99.90
27858;DHT22;16852;51.446;6.528;2023-08-24T07:10:15;25.40;99.90
27858;DHT22;16852;51.446;6.528;2023-08-24T07:12:16;25.80;99.90
27858;DHT22;16852;51.446;6.528;2023-08-24T07:14:16;26.20;99.90
27858;DHT22;16852;51.446;6.528;2023-08-24T07:16:17;26.60;99.90
27858;DHT22;16852;51.446;6.528;2023-08-24T07:18:17;26.80;99.90
27858;DHT22;16852;51.446;6.528;2023-08-24T07:20:18;27.00;99.90
27858;DHT22;16852;51.446;6.528;2023-08-24T07:22:20;27.20;99.90
27858;DHT22;16852;51.446;6.528;2023-08-24T07:24:20;27.30;99.90
27858;DHT22;16852;51.446;6.528;2023-08-24T07:26:21;27.20;99.90
27858;DHT22;16852;51.446;6.528;2023-08-24T07:28:22;27.10;99.90
27858;DHT22;16852;51.446;6.528;2023-08-24T07:30:23;27.40;99.90
27858;DHT22;16852;51.446;6.528;2023-08-24T07:32:23;27.40;99.90
27858;DHT22;16852;51.446;6.528;2023-08-24T07:34:24;27.60;99.90
27858;DHT22;16852;51.446;6.528;2023-08-24T07:36:24;27.60;99.90
27858;DHT22;16852;51.446;6.528;2023-08-24T07:38:25;27.60;99.90
27858;DHT22;16852;51.446;6.528;2023-08-24T07:40:26;27.60;99.90
27858;DHT22;16852;51.446;6.528;2023-08-24T07:42:26;27.70;99.90
27858;DHT22;16852;51.446;6.528;2023-08-24T07:44:27;27.70;99.90
27858;DHT22;16852;51.446;6.528;2023-08-24T07:46:28;27.70;99.90
27858;DHT22;16852;51.446;6.528;2023-08-24T07:48:29;27.70;99.90
27858;DHT22;16852;51.446;6.528;2023-08-24T07:50:30;27.70;99.90
27858;DHT22;16852;51.446;6.528;2023-08-24T07:52:31;27.70;99.90
27858;DHT22;16852;51.446;6.528;2023-08-24T07:54:31;27.70;99.90
27858;DHT22;16852;51.446;6.528;2023-08-24T07:56:32;27.80;99.60
27858;DHT22;16852;51.446;6.528;2023-08-24T07:58:33;27.80;99.60
27858;DHT22;16852;51.446;6.528;2023-08-24T08:00:34;27.80;99.10
27858;DHT22;16852;51.446;6.528;2023-08-24T08:02:36;27.80;99.80
27858;DHT22;16852;51.446;6.528;2023-08-24T08:04:37;27.80;98.90
27858;DHT22;16852;51.446;6.528;2023-08-24T08:06:38;27.90;99.40
27858;DHT22;16852;51.446;6.528;2023-08-24T08:08:38;27.90;99.40
27858;DHT22;16852;51.446;6.528;2023-08-24T08:10:40;27.80;99.10
27858;DHT22;16852;51.446;6.528;2023-08-24T08:12:40;27.90;99.20
27858;DHT22;16852;51.446;6.528;2023-08-24T08:14:41;28.00;98.80
27858;DHT22;16852;51.446;6.528;2023-08-24T08:16:41;28.00;98.60
27858;DHT22;16852;51.446;6.528;2023-08-24T08:18:42;28.10;99.10
27858;DHT22;16852;51.446;6.528;2023-08-24T08:20:43;28.00;98.20
27858;DHT22;16852;51.446;6.528;2023-08-24T08:22:44;27.90;98.10
27858;DHT22;16852;51.446;6.528;2023-08-24T08:24:44;28.00;98.80
27858;DHT22;16852;51.446;6.528;2023-08-24T08:26:45;28.00;98.30
27858;DHT22;16852;51.446;6.528;2023-08-24T08:28:45;27.90;98.40
27858;DHT22;16852;51.446;6.528;2023-08-24T08:30:48;27.90;98.50
27858;DHT22;16852;51.446;6.528;2023-08-24T08:32:49;27.90;98.20
27858;DHT22;16852;51.446;6.528;2023-08-24T08:34:51;27.90;98.20
27858;DHT22;16852;51.446;6.528;2023-08-24T08:36:52;27.90;98.10
27858;DHT22;16852;51.446;6.528;2023-08-24T08:38:53;27.90;98.60
27858;DHT22;16852;51.446;6.528;2023-08-24T08:40:54;27.80;98.20
27858;DHT22;16852;51.446;6.528;2023-08-24T08:42:57;27.90;98.70
27858;DHT22;16852;51.446;6.528;2023-08-24T08:44:57;28.00;98.70
27858;DHT22;16852;51.446;6.528;2023-08-24T08:47:00;28.00;98.70
27858;DHT22;16852;51.446;6.528;2023-08-24T08:49:01;28.10;98.80
27858;DHT22;16852;51.446;6.528;2023-08-24T08:51:02;28.10;98.20
27858;DHT22;16852;51.446;6.528;2023-08-24T08:53:03;28.00;98.80
27858;DHT22;16852;51.446;6.528;2023-08-24T08:55:04;28.00;98.70
27858;DHT22;16852;51.446;6.528;2023-08-24T08:57:06;28.00;99.20
27858;DHT22;16852;51.446;6.528;2023-08-24T08:59:08;28.10;99.00
27858;DHT22;16852;51.446;6.528;2023-08-24T09:01:12;28.10;98.40
27858;DHT22;16852;51.446;6.528;2023-08-24T09:03:15;28.10;98.40
27858;DHT22;16852;51.446;6.528;2023-08-24T09:05:18;28.10;98.40
27858;DHT22;16852;51.446;6.528;2023-08-24T09:07:20;28.20;97.90
27858;DHT22;16852;51.446;6.528;2023-08-24T09:09:21;28.20;98.20
27858;DHT22;16852;51.446;6.528;2023-08-24T09:11:23;28.00;97.70
27858;DHT22;16852;51.446;6.528;2023-08-24T09:13:24;28.10;98.20
27858;DHT22;16852;51.446;6.528;2023-08-24T09:15:27;28.20;97.60
27858;DHT22;16852;51.446;6.528;2023-08-24T09:17:28;28.10;97.10
27858;DHT22;16852;51.446;6.528;2023-08-24T09:19:30;28.20;97.20
27858;DHT22;16852;51.446;6.528;2023-08-24T09:21:31;28.30;97.60
27858;DHT22;16852;51.446;6.528;2023-08-24T09:23:31;28.30;98.30
27858;DHT22;16852;51.446;6.528;2023-08-24T09:25:32;28.30;98.10
27858;DHT22;16852;51.446;6.528;2023-08-24T09:27:34;28.40;97.70
27858;DHT22;16852;51.446;6.528;2023-08-24T09:29:36;28.40;97.00
27858;DHT22;16852;51.446;6.528;2023-08-24T09:31:38;28.30;97.20
27858;DHT22;16852;51.446;6.528;2023-08-24T09:33:43;28.30;97.20
27858;DHT22;16852;51.446;6.528;2023-08-24T09:35:45;28.30;97.40
27858;DHT22;16852;51.446;6.528;2023-08-24T09:37:50;28.40;97.40
27858;DHT22;16852;51.446;6.528;2023-08-24T09:40:01;28.40;97.20
27858;DHT22;16852;51.446;6.528;2023-08-24T09:42:04;28.30;97.80
27858;DHT22;16852;51.446;6.528;2023-08-24T09:44:06;28.30;96.80
27858;DHT22;16852;51.446;6.528;2023-08-24T09:46:07;28.30;97.60
27858;DHT22;16852;51.446;6.528;2023-08-24T09:48:11;28.30;97.40
27858;DHT22;16852;51.446;6.528;2023-08-24T09:50:11;28.40;97.90
27858;DHT22;16852;51.446;6.528;2023-08-24T09:52:12;28.20;96.60
27858;DHT22;16852;51.446;6.528;2023-08-24T09:54:15;28.30;96.90
27858;DHT22;16852;51.446;6.528;2023-08-24T09:56:17;28.30;97.20
27858;DHT22;16852;51.446;6.528;2023-08-24T09:58:19;28.40;97.10
27858;DHT22;16852;51.446;6.528;2023-08-24T10:00:20;28.50;97.70
27858;DHT22;16852;51.446;6.528;2023-08-24T10:02:26;28.50;97.60
27858;DHT22;16852;51.446;6.528;2023-08-24T10:04:33;28.50;97.20
27858;DHT22;16852;51.446;6.528;2023-08-24T10:06:36;28.40;97.00
27858;DHT22;16852;51.446;6.528;2023-08-24T10:08:39;28.40;97.60
27858;DHT22;16852;51.446;6.528;2023-08-24T10:10:44;28.50;97.00
27858;DHT22;16852;51.446;6.528;2023-08-24T10:12:47;28.50;96.50
27858;DHT22;16852;51.446;6.528;2023-08-24T10:15:00;28.50;97.40
27858;DHT22;16852;51.446;6.528;2023-08-24T10:17:05;28.50;96.90
27858;DHT22;16852;51.446;6.528;2023-08-24T10:19:06;28.50;97.30
27858;DHT22;16852;51.446;6.528;2023-08-24T10:21:09;28.60;97.50
27858;DHT22;16852;51.446;6.528;2023-08-24T10:23:11;28.70;97.60
27858;DHT22;16852;51.446;6.528;2023-08-24T10:25:13;28.70;98.10
27858;DHT22;16852;51.446;6.528;2023-08-24T10:27:14;28.70;97.10
27858;DHT22;16852;51.446;6.528;2023-08-24T10:29:16;28.70;97.10
27858;DHT22;16852;51.446;6.528;2023-08-24T10:31:17;28.70;97.40
27858;DHT22;16852;51.446;6.528;2023-08-24T10:33:18;28.70;97.50
27858;DHT22;16852;51.446;6.528;2023-08-24T10:35:21;28.70;96.50
27858;DHT22;16852;51.446;6.528;2023-08-24T10:37:26;28.70;96.80
27858;DHT22;16852;51.446;6.528;2023-08-24T10:39:27;28.70;96.80
27858;DHT22;16852;51.446;6.528;2023-08-24T10:41:29;28.70;96.40
27858;DHT22;16852;51.446;6.528;2023-08-24T10:43:30;28.70;96.50
27858;DHT22;16852;51.446;6.528;2023-08-24T10:46:02;28.70;96.80
27858;DHT22;16852;51.446;6.528;2023-08-24T10:48:04;28.80;97.20
27858;DHT22;16852;51.446;6.528;2023-08-24T10:50:05;28.80;96.70
27858;DHT22;16852;51.446;6.528;2023-08-24T10:52:18;28.70;96.90
27858;DHT22;16852;51.446;6.528;2023-08-24T10:54:30;28.80;97.20
27858;DHT22;16852;51.446;6.528;2023-08-24T10:56:36;28.70;96.70
27858;DHT22;16852;51.446;6.528;2023-08-24T10:58:40;28.70;97.10
27858;DHT22;16852;51.446;6.528;2023-08-24T11:00:48;28.70;96.80
27858;DHT22;16852;51.446;6.528;2023-08-24T11:02:51;28.70;96.90
27858;DHT22;16852;51.446;6.528;2023-08-24T11:05:10;28.70;97.50
27858;DHT22;16852;51.446;6.528;2023-08-24T11:07:16;28.70;97.30
27858;DHT22;16852;51.446;6.528;2023-08-24T11:09:16;28.60;97.40
27858;DHT22;16852;51.446;6.528;2023-08-24T11:11:24;28.60;96.80
27858;DHT22;16852;51.446;6.528;2023-08-24T11:13:27;28.60;97.30
27858;DHT22;16852;51.446;6.528;2023-08-24T11:17:32;28.50;96.60
27858;DHT22;16852;51.446;6.528;2023-08-24T11:19:33;28.40;96.60
27858;DHT22;16852;51.446;6.528;2023-08-24T11:21:35;28.40;96.90
27858;DHT22;16852;51.446;6.528;2023-08-24T11:23:35;28.40;97.40
27858;DHT22;16852;51.446;6.528;2023-08-24T11:25:37;28.40;97.60
27858;DHT22;16852;51.446;6.528;2023-08-24T11:27:38;28.30;97.20
27858;DHT22;16852;51.446;6.528;2023-08-24T11:29:38;28.30;97.70
27858;DHT22;16852;51.446;6.528;2023-08-24T11:31:39;28.20;97.70
27858;DHT22;16852;51.446;6.528;2023-08-24T11:33:41;28.10;97.70
27858;DHT22;16852;51.446;6.528;2023-08-24T11:35:43;28.20;97.90
27858;DHT22;16852;51.446;6.528;2023-08-24T11:37:44;28.10;98.40
27858;DHT22;16852;51.446;6.528;2023-08-24T11:39:51;28.10;98.50
27858;DHT22;16852;51.446;6.528;2023-08-24T11:42:02;28.10;98.70
27858;DHT22;16852;51.446;6.528;2023-08-24T11:44:03;28.10;98.80
27858;DHT22;16852;51.446;6.528;2023-08-24T11:46:04;28.10;99.20
27858;DHT22;16852;51.446;6.528;2023-08-24T11:48:05;28.10;99.00
27858;DHT22;16852;51.446;6.528;2023-08-24T11:50:08;28.10;99.20
27858;DHT22;16852;51.446;6.528;2023-08-24T11:52:09;28.10;99.20
27858;DHT22;16852;51.446;6.528;2023-08-24T11:54:10;28.10;99.50
27858;DHT22;16852;51.446;6.528;2023-08-24T11:56:11;28.10;99.80
27858;DHT22;16852;51.446;6.528;2023-08-24T11:58:16;28.10;99.90
27858;DHT22;16852;51.446;6.528;2023-08-24T12:00:19;28.10;99.70
27858;DHT22;16852;51.446;6.528;2023-08-24T12:02:21;28.10;99.90
27858;DHT22;16852;51.446;6.528;2023-08-24T12:04:22;28.10;99.60
27858;DHT22;16852;51.446;6.528;2023-08-24T12:06:26;28.10;99.80
27858;DHT22;16852;51.446;6.528;2023-08-24T12:08:28;28.20;99.90
27858;DHT22;16852;51.446;6.528;2023-08-24T12:10:29;28.10;99.40
27858;DHT22;16852;51.446;6.528;2023-08-24T12:12:30;28.10;99.50
27858;DHT22;16852;51.446;6.528;2023-08-24T12:14:43;28.10;99.60
27858;DHT22;16852;51.446;6.528;2023-08-24T12:16:43;28.10;99.70
27858;DHT22;16852;51.446;6.528;2023-08-24T12:19:02;28.10;99.90
27858;DHT22;16852;51.446;6.528;2023-08-24T12:21:05;28.00;99.90
27858;DHT22;16852;51.446;6.528;2023-08-24T12:23:06;28.00;99.90
27858;DHT22;16852;51.446;6.528;2023-08-24T12:25:07;28.00;99.90
27858;DHT22;16852;51.446;6.528;2023-08-24T12:27:08;28.00;99.90
27858;DHT22;16852;51.446;6.528;2023-08-24T12:29:18;27.90;99.90
27858;DHT22;16852;51.446;6.528;2023-08-24T12:31:19;27.90;99.90
27858;DHT22;16852;51.446;6.528;2023-08-24T12:33:30;27.90;99.90
27858;DHT22;16852;51.446;6.528;2023-08-24T12:35:31;27.90;99.90
27858;DHT22;16852;51.446;6.528;2023-08-24T12:37:33;27.80;99.90
27858;DHT22;16852;51.446;6.528;2023-08-24T12:39:35;27.70;99.90
27858;DHT22;16852;51.446;6.528;2023-08-24T12:41:37;27.60;99.90
27858;DHT22;16852;51.446;6.528;2023-08-24T12:43:37;27.50;99.90
27858;DHT22;16852;51.446;6.528;2023-08-24T12:45:39;27.40;99.90
27858;DHT22;16852;51.446;6.528;2023-08-24T12:47:40;27.30;99.90
27858;DHT22;16852;51.446;6.528;2023-08-24T12:49:41;27.30;99.90
27858;DHT22;16852;51.446;6.528;2023-08-24T12:51:41;27.30;99.90
27858;DHT22;16852;51.446;6.528;2023-08-24T12:53:43;27.20;99.90
27858;DHT22;16852;51.446;6.528;2023-08-24T12:55:43;27.20;99.90